sensor_id;sensor_type;location;lat;lon;timestamp;P1;durP1;ratioP1;P2;durP2;ratioP2
65407;SDS011;52017;51.230;-2.322;2022-12-18T00:02:33;32.47;;;18.38;;
65407;SDS011;52017;51.230;-2.322;2022-12-18T00:06:19;23.50;;;14.57;;
65407;SDS011;52017;51.230;-2.322;2022-12-18T00:10:01;22.38;;;15.30;;
65407;SDS011;52017;51.230;-2.322;2022-12-18T00:13:45;27.87;;;17.87;;
65407;SDS011;52017;51.230;-2.322;2022-12-18T00:17:28;28.27;;;17.87;;
65407;SDS011;52017;51.230;-2.322;2022-12-18T00:21:11;80.17;;;45.43;;
65407;SDS011;52017;51.230;-2.322;2022-12-18T00:24:53;26.10;;;16.00;;
65407;SDS011;52017;51.230;-2.322;2022-12-18T00:28:35;28.27;;;16.97;;
65407;SDS011;52017;51.230;-2.322;2022-12-18T00:32:18;36.53;;;18.60;;
65407;SDS011;52017;51.230;-2.322;2022-12-18T00:36:01;19.43;;;12.13;;
65407;SDS011;52017;51.230;-2.322;2022-12-18T00:39:47;23.77;;;13.17;;
65407;SDS011;52017;51.230;-2.322;2022-12-18T00:43:30;23.03;;;12.40;;
65407;SDS011;52017;51.230;-2.322;2022-12-18T00:47:15;20.43;;;11.17;;
65407;SDS011;52017;51.230;-2.322;2022-12-18T00:50:59;41.30;;;25.50;;
65407;SDS011;52017;51.230;-2.322;2022-12-18T00:54:44;26.30;;;15.63;;
65407;SDS011;52017;51.230;-2.322;2022-12-18T00:58:27;19.63;;;12.13;;
65407;SDS011;52017;51.230;-2.322;2022-12-18T01:02:09;19.17;;;11.60;;
65407;SDS011;52017;51.230;-2.322;2022-12-18T01:05:51;32.40;;;21.57;;
65407;SDS011;52017;51.230;-2.322;2022-12-18T01:09:33;22.40;;;13.10;;
65407;SDS011;52017;51.230;-2.322;2022-12-18T01:13:16;26.37;;;17.10;;
65407;SDS011;52017;51.230;-2.322;2022-12-18T01:16:58;60.93;;;37.93;;
65407;SDS011;52017;51.230;-2.322;2022-12-18T01:20:40;34.93;;;20.10;;
65407;SDS011;52017;51.230;-2.322;2022-12-18T01:24:22;34.07;;;20.27;;
65407;SDS011;52017;51.230;-2.322;2022-12-18T01:28:04;21.07;;;14.50;;
65407;SDS011;52017;51.230;-2.322;2022-12-18T01:31:46;92.03;;;51.73;;
65407;SDS011;52017;51.230;-2.322;2022-12-18T01:35:28;49.60;;;27.17;;
65407;SDS011;52017;51.230;-2.322;2022-12-18T01:39:12;60.00;;;39.07;;
65407;SDS011;52017;51.230;-2.322;2022-12-18T01:42:55;24.33;;;14.73;;
65407;SDS011;52017;51.230;-2.322;2022-12-18T01:46:37;19.83;;;12.63;;
65407;SDS011;52017;51.230;-2.322;2022-12-18T01:50:30;17.87;;;11.47;;
65407;SDS011;52017;51.230;-2.322;2022-12-18T01:54:23;19.13;;;12.43;;
65407;SDS011;52017;51.230;-2.322;2022-12-18T01:58:04;21.67;;;14.37;;
65407;SDS011;52017;51.230;-2.322;2022-12-18T02:01:47;17.23;;;11.43;;
65407;SDS011;52017;51.230;-2.322;2022-12-18T02:09:24;57.97;;;32.37;;
65407;SDS011;52017;51.230;-2.322;2022-12-18T02:13:15;24.20;;;12.20;;
65407;SDS011;52017;51.230;-2.322;2022-12-18T02:17:22;17.70;;;11.50;;
65407;SDS011;52017;51.230;-2.322;2022-12-18T02:21:12;17.43;;;11.73;;
65407;SDS011;52017;51.230;-2.322;2022-12-18T02:29:38;20.37;;;11.77;;
65407;SDS011;52017;51.230;-2.322;2022-12-18T02:33:33;16.93;;;11.67;;
65407;SDS011;52017;51.230;-2.322;2022-12-18T02:37:18;22.83;;;10.90;;
65407;SDS011;52017;51.230;-2.322;2022-12-18T02:41:01;16.87;;;10.70;;
65407;SDS011;52017;51.230;-2.322;2022-12-18T02:44:45;14.37;;;9.30;;
65407;SDS011;52017;51.230;-2.322;2022-12-18T02:48:30;17.10;;;9.50;;
65407;SDS011;52017;51.230;-2.322;2022-12-18T03:03:52;16.77;;;8.63;;
65407;SDS011;52017;51.230;-2.322;2022-12-18T03:07:45;19.03;;;9.97;;
65407;SDS011;52017;51.230;-2.322;2022-12-18T03:11:33;13.30;;;9.73;;
65407;SDS011;52017;51.230;-2.322;2022-12-18T03:15:37;14.53;;;9.10;;
65407;SDS011;52017;51.230;-2.322;2022-12-18T03:19:31;13.83;;;8.67;;
65407;SDS011;52017;51.230;-2.322;2022-12-18T03:23:19;11.00;;;7.07;;
65407;SDS011;52017;51.230;-2.322;2022-12-18T03:27:08;14.93;;;8.63;;
65407;SDS011;52017;51.230;-2.322;2022-12-18T03:30:54;11.77;;;7.53;;
65407;SDS011;52017;51.230;-2.322;2022-12-18T03:34:40;14.57;;;8.10;;
65407;SDS011;52017;51.230;-2.322;2022-12-18T03:38:24;14.13;;;8.80;;
65407;SDS011;52017;51.230;-2.322;2022-12-18T03:42:16;9.97;;;6.80;;
65407;SDS011;52017;51.230;-2.322;2022-12-18T03:46:16;12.93;;;6.47;;
65407;SDS011;52017;51.230;-2.322;2022-12-18T03:53:59;13.47;;;7.80;;
65407;SDS011;52017;51.230;-2.322;2022-12-18T03:57:43;14.17;;;7.60;;
65407;SDS011;52017;51.230;-2.322;2022-12-18T04:01:31;12.60;;;7.60;;
65407;SDS011;52017;51.230;-2.322;2022-12-18T04:05:16;11.30;;;7.10;;
65407;SDS011;52017;51.230;-2.322;2022-12-18T04:08:59;12.60;;;7.43;;
65407;SDS011;52017;51.230;-2.322;2022-12-18T04:12:42;9.27;;;6.97;;
65407;SDS011;52017;51.230;-2.322;2022-12-18T04:16:25;13.23;;;7.93;;
65407;SDS011;52017;51.230;-2.322;2022-12-18T04:20:07;16.73;;;8.97;;
65407;SDS011;52017;51.230;-2.322;2022-12-18T04:23:49;13.97;;;7.33;;
65407;SDS011;52017;51.230;-2.322;2022-12-18T04:27:31;13.07;;;7.43;;
65407;SDS011;52017;51.230;-2.322;2022-12-18T04:31:13;11.73;;;7.37;;
65407;SDS011;52017;51.230;-2.322;2022-12-18T04:34:56;11.93;;;7.37;;
65407;SDS011;52017;51.230;-2.322;2022-12-18T04:38:37;14.47;;;7.43;;
65407;SDS011;52017;51.230;-2.322;2022-12-18T04:42:20;14.03;;;7.83;;
65407;SDS011;52017;51.230;-2.322;2022-12-18T04:46:03;12.30;;;6.47;;
65407;SDS011;52017;51.230;-2.322;2022-12-18T04:49:45;12.57;;;6.67;;
65407;SDS011;52017;51.230;-2.322;2022-12-18T04:53:27;9.90;;;6.37;;
65407;SDS011;52017;51.230;-2.322;2022-12-18T04:57:09;14.90;;;7.43;;
65407;SDS011;52017;51.230;-2.322;2022-12-18T05:00:51;12.53;;;7.17;;
65407;SDS011;52017;51.230;-2.322;2022-12-18T05:04:33;13.27;;;7.37;;
65407;SDS011;52017;51.230;-2.322;2022-12-18T05:08:15;11.57;;;6.90;;
65407;SDS011;52017;51.230;-2.322;2022-12-18T05:11:57;11.40;;;6.43;;
65407;SDS011;52017;51.230;-2.322;2022-12-18T05:15:39;13.20;;;6.97;;
65407;SDS011;52017;51.230;-2.322;2022-12-18T05:19:23;15.07;;;7.10;;
65407;SDS011;52017;51.230;-2.322;2022-12-18T05:23:05;10.63;;;6.47;;
65407;SDS011;52017;51.230;-2.322;2022-12-18T05:26:46;11.73;;;7.47;;
65407;SDS011;52017;51.230;-2.322;2022-12-18T05:30:29;14.03;;;7.93;;
65407;SDS011;52017;51.230;-2.322;2022-12-18T05:34:11;15.60;;;7.60;;
65407;SDS011;52017;51.230;-2.322;2022-12-18T05:37:53;15.80;;;7.20;;
65407;SDS011;52017;51.230;-2.322;2022-12-18T05:41:35;13.07;;;6.80;;
65407;SDS011;52017;51.230;-2.322;2022-12-18T05:45:17;12.87;;;7.80;;
65407;SDS011;52017;51.230;-2.322;2022-12-18T05:48:59;12.87;;;6.97;;
65407;SDS011;52017;51.230;-2.322;2022-12-18T05:52:42;41.80;;;17.77;;
65407;SDS011;52017;51.230;-2.322;2022-12-18T05:56:24;17.20;;;9.27;;
65407;SDS011;52017;51.230;-2.322;2022-12-18T06:00:06;23.70;;;11.13;;
65407;SDS011;52017;51.230;-2.322;2022-12-18T06:03:49;17.00;;;9.90;;
65407;SDS011;52017;51.230;-2.322;2022-12-18T06:07:31;16.50;;;10.47;;
65407;SDS011;52017;51.230;-2.322;2022-12-18T06:11:15;24.07;;;11.27;;
65407;SDS011;52017;51.230;-2.322;2022-12-18T06:14:59;19.40;;;10.43;;
65407;SDS011;52017;51.230;-2.322;2022-12-18T06:18:41;18.47;;;10.50;;
65407;SDS011;52017;51.230;-2.322;2022-12-18T06:22:23;21.03;;;10.33;;
65407;SDS011;52017;51.230;-2.322;2022-12-18T06:26:06;17.97;;;10.30;;
65407;SDS011;52017;51.230;-2.322;2022-12-18T06:29:50;18.13;;;10.00;;
65407;SDS011;52017;51.230;-2.322;2022-12-18T06:33:32;17.07;;;10.40;;
65407;SDS011;52017;51.230;-2.322;2022-12-18T06:37:15;21.23;;;11.53;;
65407;SDS011;52017;51.230;-2.322;2022-12-18T06:40:57;17.33;;;9.60;;
65407;SDS011;52017;51.230;-2.322;2022-12-18T06:44:39;22.20;;;10.40;;
65407;SDS011;52017;51.230;-2.322;2022-12-18T06:48:22;23.23;;;12.67;;
65407;SDS011;52017;51.230;-2.322;2022-12-18T06:52:03;17.07;;;9.63;;
65407;SDS011;52017;51.230;-2.322;2022-12-18T06:55:46;23.50;;;10.80;;
65407;SDS011;52017;51.230;-2.322;2022-12-18T06:59:28;16.87;;;10.27;;
65407;SDS011;52017;51.230;-2.322;2022-12-18T07:03:10;17.97;;;9.90;;
65407;SDS011;52017;51.230;-2.322;2022-12-18T07:06:52;20.47;;;10.43;;
65407;SDS011;52017;51.230;-2.322;2022-12-18T07:10:40;21.70;;;10.63;;
65407;SDS011;52017;51.230;-2.322;2022-12-18T07:14:29;18.60;;;10.60;;
65407;SDS011;52017;51.230;-2.322;2022-12-18T07:18:11;17.93;;;10.10;;
65407;SDS011;52017;51.230;-2.322;2022-12-18T07:21:53;25.90;;;9.57;;
65407;SDS011;52017;51.230;-2.322;2022-12-18T07:25:35;17.10;;;9.37;;
65407;SDS011;52017;51.230;-2.322;2022-12-18T07:29:18;17.93;;;10.23;;
65407;SDS011;52017;51.230;-2.322;2022-12-18T07:33:00;17.07;;;9.07;;
65407;SDS011;52017;51.230;-2.322;2022-12-18T07:36:42;16.53;;;9.37;;
65407;SDS011;52017;51.230;-2.322;2022-12-18T07:40:24;19.10;;;10.33;;
65407;SDS011;52017;51.230;-2.322;2022-12-18T07:44:08;18.00;;;8.97;;
65407;SDS011;52017;51.230;-2.322;2022-12-18T07:47:52;17.13;;;8.87;;
65407;SDS011;52017;51.230;-2.322;2022-12-18T07:51:34;14.93;;;9.43;;
65407;SDS011;52017;51.230;-2.322;2022-12-18T07:55:16;18.00;;;9.60;;
65407;SDS011;52017;51.230;-2.322;2022-12-18T07:58:58;13.73;;;9.33;;
65407;SDS011;52017;51.230;-2.322;2022-12-18T08:02:43;19.80;;;8.33;;
65407;SDS011;52017;51.230;-2.322;2022-12-18T08:06:26;14.60;;;8.67;;
65407;SDS011;52017;51.230;-2.322;2022-12-18T08:10:08;16.37;;;8.23;;
65407;SDS011;52017;51.230;-2.322;2022-12-18T08:13:50;14.50;;;9.27;;
65407;SDS011;52017;51.230;-2.322;2022-12-18T08:17:32;13.40;;;8.07;;
65407;SDS011;52017;51.230;-2.322;2022-12-18T08:21:19;13.87;;;8.43;;
65407;SDS011;52017;51.230;-2.322;2022-12-18T08:25:04;14.97;;;8.77;;
65407;SDS011;52017;51.230;-2.322;2022-12-18T08:28:47;17.80;;;8.20;;
65407;SDS011;52017;51.230;-2.322;2022-12-18T08:32:30;16.57;;;8.97;;
65407;SDS011;52017;51.230;-2.322;2022-12-18T08:36:14;19.53;;;8.87;;
65407;SDS011;52017;51.230;-2.322;2022-12-18T08:39:56;17.00;;;9.20;;
65407;SDS011;52017;51.230;-2.322;2022-12-18T08:43:39;14.93;;;9.13;;
65407;SDS011;52017;51.230;-2.322;2022-12-18T08:47:40;19.83;;;9.63;;
65407;SDS011;52017;51.230;-2.322;2022-12-18T08:51:22;20.50;;;10.30;;
65407;SDS011;52017;51.230;-2.322;2022-12-18T08:55:04;16.53;;;9.87;;
65407;SDS011;52017;51.230;-2.322;2022-12-18T08:58:47;15.23;;;9.37;;
65407;SDS011;52017;51.230;-2.322;2022-12-18T09:02:32;15.43;;;9.27;;
65407;SDS011;52017;51.230;-2.322;2022-12-18T09:06:15;17.27;;;9.57;;
65407;SDS011;52017;51.230;-2.322;2022-12-18T09:09:58;16.87;;;9.70;;
65407;SDS011;52017;51.230;-2.322;2022-12-18T09:13:40;19.17;;;10.60;;
65407;SDS011;52017;51.230;-2.322;2022-12-18T09:17:23;19.80;;;9.87;;
65407;SDS011;52017;51.230;-2.322;2022-12-18T09:21:12;17.80;;;9.97;;
65407;SDS011;52017;51.230;-2.322;2022-12-18T09:25:00;16.43;;;9.50;;
65407;SDS011;52017;51.230;-2.322;2022-12-18T09:28:42;13.83;;;9.10;;
65407;SDS011;52017;51.230;-2.322;2022-12-18T09:32:25;18.43;;;9.83;;
65407;SDS011;52017;51.230;-2.322;2022-12-18T09:36:08;17.53;;;10.10;;
65407;SDS011;52017;51.230;-2.322;2022-12-18T09:39:52;16.43;;;9.23;;
65407;SDS011;52017;51.230;-2.322;2022-12-18T09:43:45;17.07;;;10.40;;
65407;SDS011;52017;51.230;-2.322;2022-12-18T09:47:33;20.10;;;11.13;;
65407;SDS011;52017;51.230;-2.322;2022-12-18T09:51:19;19.17;;;11.27;;
65407;SDS011;52017;51.230;-2.322;2022-12-18T09:59:03;17.40;;;10.33;;
65407;SDS011;52017;51.230;-2.322;2022-12-18T10:02:46;20.77;;;11.67;;
65407;SDS011;52017;51.230;-2.322;2022-12-18T10:18:13;20.00;;;11.80;;
65407;SDS011;52017;51.230;-2.322;2022-12-18T10:22:29;21.57;;;11.40;;
65407;SDS011;52017;51.230;-2.322;2022-12-18T10:26:31;23.23;;;12.23;;
65407;SDS011;52017;51.230;-2.322;2022-12-18T10:30:15;19.00;;;12.00;;
65407;SDS011;52017;51.230;-2.322;2022-12-18T10:34:01;23.07;;;12.10;;
65407;SDS011;52017;51.230;-2.322;2022-12-18T10:38:31;21.93;;;12.13;;
65407;SDS011;52017;51.230;-2.322;2022-12-18T10:41:48;21.57;;;12.73;;
65407;SDS011;52017;51.230;-2.322;2022-12-18T10:45:30;25.37;;;13.40;;
65407;SDS011;52017;51.230;-2.322;2022-12-18T10:49:19;21.53;;;12.27;;
65407;SDS011;52017;51.230;-2.322;2022-12-18T10:53:13;20.73;;;13.67;;
65407;SDS011;52017;51.230;-2.322;2022-12-18T10:57:15;23.07;;;12.97;;
65407;SDS011;52017;51.230;-2.322;2022-12-18T11:01:21;22.67;;;12.37;;
65407;SDS011;52017;51.230;-2.322;2022-12-18T11:05:23;22.00;;;12.50;;
65407;SDS011;52017;51.230;-2.322;2022-12-18T11:09:20;23.47;;;13.13;;
65407;SDS011;52017;51.230;-2.322;2022-12-18T11:13:14;21.23;;;12.77;;
65407;SDS011;52017;51.230;-2.322;2022-12-18T11:17:05;19.33;;;11.57;;
65407;SDS011;52017;51.230;-2.322;2022-12-18T11:21:09;19.63;;;11.47;;
65407;SDS011;52017;51.230;-2.322;2022-12-18T11:24:59;18.90;;;11.23;;
65407;SDS011;52017;51.230;-2.322;2022-12-18T11:29:09;15.70;;;9.90;;
65407;SDS011;52017;51.230;-2.322;2022-12-18T11:36:51;11.77;;;7.87;;
65407;SDS011;52017;51.230;-2.322;2022-12-18T11:40:38;16.17;;;10.50;;
65407;SDS011;52017;51.230;-2.322;2022-12-18T11:44:26;16.10;;;9.50;;
65407;SDS011;52017;51.230;-2.322;2022-12-18T11:48:32;14.70;;;8.63;;
65407;SDS011;52017;51.230;-2.322;2022-12-18T11:52:21;14.13;;;9.60;;
65407;SDS011;52017;51.230;-2.322;2022-12-18T12:00:18;12.37;;;8.03;;
65407;SDS011;52017;51.230;-2.322;2022-12-18T12:25:18;8.73;;;4.80;;
65407;SDS011;52017;51.230;-2.322;2022-12-18T12:29:30;9.83;;;4.77;;
65407;SDS011;52017;51.230;-2.322;2022-12-18T12:37:25;7.73;;;4.50;;
65407;SDS011;52017;51.230;-2.322;2022-12-18T12:41:15;8.13;;;4.83;;
65407;SDS011;52017;51.230;-2.322;2022-12-18T12:45:23;6.07;;;3.90;;
65407;SDS011;52017;51.230;-2.322;2022-12-18T12:49:17;6.50;;;3.63;;
65407;SDS011;52017;51.230;-2.322;2022-12-18T12:53:07;4.47;;;3.43;;
65407;SDS011;52017;51.230;-2.322;2022-12-18T13:09:11;16.00;;;8.40;;
65407;SDS011;52017;51.230;-2.322;2022-12-18T13:13:02;4.50;;;3.10;;
65407;SDS011;52017;51.230;-2.322;2022-12-18T13:16:49;3.93;;;2.50;;
65407;SDS011;52017;51.230;-2.322;2022-12-18T13:20:36;3.77;;;2.37;;
65407;SDS011;52017;51.230;-2.322;2022-12-18T13:24:27;7.13;;;2.87;;
65407;SDS011;52017;51.230;-2.322;2022-12-18T13:28:13;3.83;;;2.43;;
65407;SDS011;52017;51.230;-2.322;2022-12-18T13:31:58;4.40;;;1.87;;
65407;SDS011;52017;51.230;-2.322;2022-12-18T13:39:31;4.17;;;1.57;;
65407;SDS011;52017;51.230;-2.322;2022-12-18T13:47:01;2.97;;;1.80;;
65407;SDS011;52017;51.230;-2.322;2022-12-18T13:50:49;4.03;;;1.60;;
65407;SDS011;52017;51.230;-2.322;2022-12-18T13:54:37;2.30;;;1.50;;
65407;SDS011;52017;51.230;-2.322;2022-12-18T13:58:22;3.53;;;2.07;;
65407;SDS011;52017;51.230;-2.322;2022-12-18T14:06:02;3.43;;;2.13;;
65407;SDS011;52017;51.230;-2.322;2022-12-18T14:09:53;2.80;;;1.77;;
65407;SDS011;52017;51.230;-2.322;2022-12-18T14:13:59;4.77;;;2.20;;
65407;SDS011;52017;51.230;-2.322;2022-12-18T14:17:42;3.40;;;2.00;;
65407;SDS011;52017;51.230;-2.322;2022-12-18T14:21:26;6.13;;;2.40;;
65407;SDS011;52017;51.230;-2.322;2022-12-18T14:25:15;3.40;;;1.93;;
65407;SDS011;52017;51.230;-2.322;2022-12-18T14:29:19;5.73;;;2.20;;
65407;SDS011;52017;51.230;-2.322;2022-12-18T14:33:10;3.70;;;1.87;;
65407;SDS011;52017;51.230;-2.322;2022-12-18T14:36:57;4.77;;;1.80;;
65407;SDS011;52017;51.230;-2.322;2022-12-18T14:40:40;2.90;;;1.30;;
65407;SDS011;52017;51.230;-2.322;2022-12-18T14:44:23;3.03;;;1.70;;
65407;SDS011;52017;51.230;-2.322;2022-12-18T14:48:06;3.77;;;1.50;;
65407;SDS011;52017;51.230;-2.322;2022-12-18T14:51:54;3.67;;;2.15;;
65407;SDS011;52017;51.230;-2.322;2022-12-18T14:55:46;5.13;;;2.23;;
65407;SDS011;52017;51.230;-2.322;2022-12-18T14:59:29;2.43;;;1.57;;
65407;SDS011;52017;51.230;-2.322;2022-12-18T15:03:16;4.57;;;2.60;;
65407;SDS011;52017;51.230;-2.322;2022-12-18T15:07:06;4.80;;;1.70;;
65407;SDS011;52017;51.230;-2.322;2022-12-18T15:10:52;3.57;;;1.87;;
65407;SDS011;52017;51.230;-2.322;2022-12-18T15:18:29;2.23;;;1.20;;
65407;SDS011;52017;51.230;-2.322;2022-12-18T15:26:13;4.83;;;1.80;;
65407;SDS011;52017;51.230;-2.322;2022-12-18T15:34:00;4.77;;;1.90;;
65407;SDS011;52017;51.230;-2.322;2022-12-18T15:37:48;4.33;;;1.60;;
65407;SDS011;52017;51.230;-2.322;2022-12-18T15:41:33;4.37;;;1.63;;
65407;SDS011;52017;51.230;-2.322;2022-12-18T15:45:16;3.57;;;1.57;;
65407;SDS011;52017;51.230;-2.322;2022-12-18T15:49:07;3.97;;;1.80;;
65407;SDS011;52017;51.230;-2.322;2022-12-18T15:52:52;3.13;;;1.20;;
65407;SDS011;52017;51.230;-2.322;2022-12-18T15:56:42;3.57;;;2.33;;
65407;SDS011;52017;51.230;-2.322;2022-12-18T16:00:44;2.90;;;1.60;;
65407;SDS011;52017;51.230;-2.322;2022-12-18T16:04:27;4.77;;;1.80;;
65407;SDS011;52017;51.230;-2.322;2022-12-18T16:08:12;4.63;;;2.75;;
65407;SDS011;52017;51.230;-2.322;2022-12-18T16:11:57;6.30;;;3.07;;
65407;SDS011;52017;51.230;-2.322;2022-12-18T16:15:42;5.77;;;2.77;;
65407;SDS011;52017;51.230;-2.322;2022-12-18T16:19:24;6.73;;;3.87;;
65407;SDS011;52017;51.230;-2.322;2022-12-18T16:23:08;6.57;;;3.30;;
65407;SDS011;52017;51.230;-2.322;2022-12-18T16:26:54;5.50;;;2.60;;
65407;SDS011;52017;51.230;-2.322;2022-12-18T16:30:41;6.40;;;3.10;;
65407;SDS011;52017;51.230;-2.322;2022-12-18T16:34:28;7.27;;;3.70;;
65407;SDS011;52017;51.230;-2.322;2022-12-18T16:38:23;6.60;;;3.40;;
65407;SDS011;52017;51.230;-2.322;2022-12-18T16:42:14;3.50;;;2.33;;
65407;SDS011;52017;51.230;-2.322;2022-12-18T16:46:01;7.37;;;3.13;;
65407;SDS011;52017;51.230;-2.322;2022-12-18T16:49:47;4.70;;;2.67;;
65407;SDS011;52017;51.230;-2.322;2022-12-18T16:53:48;4.13;;;2.63;;
65407;SDS011;52017;51.230;-2.322;2022-12-18T16:57:35;4.97;;;2.10;;
65407;SDS011;52017;51.230;-2.322;2022-12-18T17:01:18;4.97;;;2.63;;
65407;SDS011;52017;51.230;-2.322;2022-12-18T17:05:01;6.70;;;3.47;;
65407;SDS011;52017;51.230;-2.322;2022-12-18T17:08:43;7.13;;;2.87;;
65407;SDS011;52017;51.230;-2.322;2022-12-18T17:12:26;7.13;;;2.60;;
65407;SDS011;52017;51.230;-2.322;2022-12-18T17:16:08;7.70;;;2.73;;
65407;SDS011;52017;51.230;-2.322;2022-12-18T17:19:52;6.40;;;3.17;;
65407;SDS011;52017;51.230;-2.322;2022-12-18T17:23:37;8.37;;;3.97;;
65407;SDS011;52017;51.230;-2.322;2022-12-18T17:27:20;8.20;;;4.60;;
65407;SDS011;52017;51.230;-2.322;2022-12-18T17:31:13;8.10;;;3.43;;
65407;SDS011;52017;51.230;-2.322;2022-12-18T17:35:05;5.87;;;3.20;;
65407;SDS011;52017;51.230;-2.322;2022-12-18T17:38:55;7.53;;;3.07;;
65407;SDS011;52017;51.230;-2.322;2022-12-18T17:42:51;7.13;;;3.57;;
65407;SDS011;52017;51.230;-2.322;2022-12-18T17:46:40;7.53;;;3.73;;
65407;SDS011;52017;51.230;-2.322;2022-12-18T17:50:23;5.63;;;3.10;;
65407;SDS011;52017;51.230;-2.322;2022-12-18T17:54:12;6.37;;;2.87;;
65407;SDS011;52017;51.230;-2.322;2022-12-18T17:57:56;5.37;;;2.93;;
65407;SDS011;52017;51.230;-2.322;2022-12-18T18:01:42;6.37;;;2.90;;
65407;SDS011;52017;51.230;-2.322;2022-12-18T18:05:28;7.22;;;3.40;;
65407;SDS011;52017;51.230;-2.322;2022-12-18T18:09:12;9.53;;;3.47;;
65407;SDS011;52017;51.230;-2.322;2022-12-18T18:17:00;9.03;;;3.70;;
65407;SDS011;52017;51.230;-2.322;2022-12-18T18:20:45;7.23;;;3.33;;
65407;SDS011;52017;51.230;-2.322;2022-12-18T18:24:28;8.33;;;4.13;;
65407;SDS011;52017;51.230;-2.322;2022-12-18T18:28:10;9.57;;;3.70;;
65407;SDS011;52017;51.230;-2.322;2022-12-18T18:31:52;8.70;;;4.07;;
65407;SDS011;52017;51.230;-2.322;2022-12-18T18:35:37;8.30;;;4.80;;
65407;SDS011;52017;51.230;-2.322;2022-12-18T18:39:38;9.60;;;4.23;;
65407;SDS011;52017;51.230;-2.322;2022-12-18T18:43:21;8.10;;;4.57;;
65407;SDS011;52017;51.230;-2.322;2022-12-18T18:47:06;12.13;;;5.40;;
65407;SDS011;52017;51.230;-2.322;2022-12-18T18:50:56;5.57;;;3.30;;
65407;SDS011;52017;51.230;-2.322;2022-12-18T18:54:45;6.47;;;3.13;;
65407;SDS011;52017;51.230;-2.322;2022-12-18T18:58:49;4.00;;;2.63;;
65407;SDS011;52017;51.230;-2.322;2022-12-18T19:02:32;6.07;;;2.80;;
65407;SDS011;52017;51.230;-2.322;2022-12-18T19:06:18;10.13;;;3.40;;
65407;SDS011;52017;51.230;-2.322;2022-12-18T19:10:05;5.03;;;2.20;;
65407;SDS011;52017;51.230;-2.322;2022-12-18T19:13:48;6.23;;;2.97;;
65407;SDS011;52017;51.230;-2.322;2022-12-18T19:17:32;3.67;;;2.43;;
65407;SDS011;52017;51.230;-2.322;2022-12-18T19:21:15;7.70;;;3.20;;
65407;SDS011;52017;51.230;-2.322;2022-12-18T19:24:59;4.63;;;2.00;;
65407;SDS011;52017;51.230;-2.322;2022-12-18T19:28:42;5.20;;;3.00;;
65407;SDS011;52017;51.230;-2.322;2022-12-18T19:32:25;4.93;;;3.00;;
65407;SDS011;52017;51.230;-2.322;2022-12-18T19:40:01;6.60;;;2.60;;
65407;SDS011;52017;51.230;-2.322;2022-12-18T19:43:52;6.20;;;2.90;;
65407;SDS011;52017;51.230;-2.322;2022-12-18T19:47:35;7.97;;;3.00;;
65407;SDS011;52017;51.230;-2.322;2022-12-18T19:51:20;5.17;;;2.37;;
65407;SDS011;52017;51.230;-2.322;2022-12-18T19:55:04;5.93;;;3.00;;
65407;SDS011;52017;51.230;-2.322;2022-12-18T19:58:49;7.90;;;4.10;;
65407;SDS011;52017;51.230;-2.322;2022-12-18T20:02:31;5.10;;;2.10;;
65407;SDS011;52017;51.230;-2.322;2022-12-18T20:06:30;3.60;;;2.17;;
65407;SDS011;52017;51.230;-2.322;2022-12-18T20:10:15;3.70;;;1.77;;
65407;SDS011;52017;51.230;-2.322;2022-12-18T20:14:00;5.40;;;2.30;;
65407;SDS011;52017;51.230;-2.322;2022-12-18T20:17:42;4.37;;;2.50;;
65407;SDS011;52017;51.230;-2.322;2022-12-18T20:21:27;3.53;;;1.70;;
65407;SDS011;52017;51.230;-2.322;2022-12-18T20:25:09;4.73;;;2.33;;
65407;SDS011;52017;51.230;-2.322;2022-12-18T20:28:52;2.93;;;1.83;;
65407;SDS011;52017;51.230;-2.322;2022-12-18T20:32:38;5.77;;;2.03;;
65407;SDS011;52017;51.230;-2.322;2022-12-18T20:36:20;4.87;;;1.57;;
65407;SDS011;52017;51.230;-2.322;2022-12-18T20:40:05;3.30;;;1.50;;
65407;SDS011;52017;51.230;-2.322;2022-12-18T20:43:48;3.63;;;1.93;;
65407;SDS011;52017;51.230;-2.322;2022-12-18T20:47:31;3.20;;;1.70;;
65407;SDS011;52017;51.230;-2.322;2022-12-18T20:51:15;3.60;;;1.60;;
65407;SDS011;52017;51.230;-2.322;2022-12-18T20:55:04;5.37;;;1.93;;
65407;SDS011;52017;51.230;-2.322;2022-12-18T20:58:47;3.83;;;1.73;;
65407;SDS011;52017;51.230;-2.322;2022-12-18T21:02:35;2.90;;;1.40;;
65407;SDS011;52017;51.230;-2.322;2022-12-18T21:06:18;3.77;;;1.33;;
65407;SDS011;52017;51.230;-2.322;2022-12-18T21:10:03;3.90;;;1.70;;
65407;SDS011;52017;51.230;-2.322;2022-12-18T21:13:46;4.27;;;1.57;;
65407;SDS011;52017;51.230;-2.322;2022-12-18T21:17:28;4.93;;;1.90;;
65407;SDS011;52017;51.230;-2.322;2022-12-18T21:21:14;7.18;;;2.00;;
65407;SDS011;52017;51.230;-2.322;2022-12-18T21:25:07;7.00;;;1.93;;
65407;SDS011;52017;51.230;-2.322;2022-12-18T21:28:53;7.07;;;2.43;;
65407;SDS011;52017;51.230;-2.322;2022-12-18T21:32:38;11.00;;;2.40;;
65407;SDS011;52017;51.230;-2.322;2022-12-18T21:36:20;6.27;;;2.20;;
65407;SDS011;52017;51.230;-2.322;2022-12-18T21:40:05;7.73;;;2.23;;
65407;SDS011;52017;51.230;-2.322;2022-12-18T21:43:49;12.10;;;2.77;;
65407;SDS011;52017;51.230;-2.322;2022-12-18T21:47:47;6.37;;;2.03;;
65407;SDS011;52017;51.230;-2.322;2022-12-18T21:51:29;9.43;;;2.37;;
65407;SDS011;52017;51.230;-2.322;2022-12-18T21:55:14;6.73;;;1.97;;
65407;SDS011;52017;51.230;-2.322;2022-12-18T21:58:56;10.47;;;3.23;;
65407;SDS011;52017;51.230;-2.322;2022-12-18T22:02:38;5.90;;;1.80;;
65407;SDS011;52017;51.230;-2.322;2022-12-18T22:06:23;4.93;;;1.87;;
65407;SDS011;52017;51.230;-2.322;2022-12-18T22:10:05;7.07;;;2.30;;
65407;SDS011;52017;51.230;-2.322;2022-12-18T22:13:47;5.83;;;1.83;;
65407;SDS011;52017;51.230;-2.322;2022-12-18T22:17:30;10.90;;;2.20;;
65407;SDS011;52017;51.230;-2.322;2022-12-18T22:21:25;9.97;;;1.83;;
65407;SDS011;52017;51.230;-2.322;2022-12-18T22:25:14;4.43;;;1.80;;
65407;SDS011;52017;51.230;-2.322;2022-12-18T22:28:57;6.93;;;1.80;;
65407;SDS011;52017;51.230;-2.322;2022-12-18T22:32:57;3.20;;;1.30;;
65407;SDS011;52017;51.230;-2.322;2022-12-18T22:36:41;5.10;;;1.50;;
65407;SDS011;52017;51.230;-2.322;2022-12-18T22:40:25;6.60;;;1.80;;
65407;SDS011;52017;51.230;-2.322;2022-12-18T22:44:08;6.57;;;1.60;;
65407;SDS011;52017;51.230;-2.322;2022-12-18T22:47:53;6.50;;;1.77;;
65407;SDS011;52017;51.230;-2.322;2022-12-18T22:51:35;4.23;;;1.63;;
65407;SDS011;52017;51.230;-2.322;2022-12-18T22:55:17;5.17;;;1.47;;
65407;SDS011;52017;51.230;-2.322;2022-12-18T22:58:59;4.43;;;1.50;;
65407;SDS011;52017;51.230;-2.322;2022-12-18T23:02:43;3.63;;;1.70;;
65407;SDS011;52017;51.230;-2.322;2022-12-18T23:06:26;4.03;;;1.17;;
65407;SDS011;52017;51.230;-2.322;2022-12-18T23:10:08;3.13;;;1.37;;
65407;SDS011;52017;51.230;-2.322;2022-12-18T23:13:51;2.87;;;1.00;;
65407;SDS011;52017;51.230;-2.322;2022-12-18T23:17:37;3.27;;;1.13;;
65407;SDS011;52017;51.230;-2.322;2022-12-18T23:21:20;1.53;;;0.70;;
65407;SDS011;52017;51.230;-2.322;2022-12-18T23:25:04;2.53;;;1.27;;
65407;SDS011;52017;51.230;-2.322;2022-12-18T23:28:51;4.25;;;1.08;;
65407;SDS011;52017;51.230;-2.322;2022-12-18T23:32:36;2.37;;;0.83;;
65407;SDS011;52017;51.230;-2.322;2022-12-18T23:40:06;1.40;;;0.70;;
65407;SDS011;52017;51.230;-2.322;2022-12-18T23:43:48;1.70;;;0.70;;
65407;SDS011;52017;51.230;-2.322;2022-12-18T23:47:31;1.33;;;0.90;;
65407;SDS011;52017;51.230;-2.322;2022-12-18T23:51:14;2.83;;;0.70;;
65407;SDS011;52017;51.230;-2.322;2022-12-18T23:54:58;3.90;;;1.17;;
65407;SDS011;52017;51.230;-2.322;2022-12-18T23:58:42;2.77;;;0.60;;
